createdAt,value
2019-04-07T00:00:42.628Z,8.30
2019-04-07T00:03:13.081Z,8.30
2019-04-07T00:05:43.815Z,8.20
2019-04-07T00:08:14.511Z,8.20
2019-04-07T00:10:45.580Z,8.20
2019-04-07T00:13:16.108Z,8.30
2019-04-07T00:15:46.589Z,8.30
2019-04-07T00:18:16.995Z,8.30
2019-04-07T00:20:47.423Z,8.10
2019-04-07T00:23:17.831Z,7.90
2019-04-07T00:25:48.179Z,8.10
2019-04-07T00:28:18.586Z,8.00
2019-04-07T00:30:48.946Z,8.10
2019-04-07T00:33:19.317Z,8.10
2019-04-07T00:35:49.759Z,8.00
2019-04-07T00:38:20.275Z,8.10
2019-04-07T00:40:50.677Z,8.10
2019-04-07T00:43:21.103Z,7.90
2019-04-07T00:45:51.437Z,7.90
2019-04-07T00:48:22.146Z,7.80
2019-04-07T00:50:52.549Z,7.80
2019-04-07T00:53:23.198Z,7.80
2019-04-07T00:55:54.160Z,7.80
2019-04-07T00:58:24.549Z,7.80
2019-04-07T01:00:55.145Z,7.80
2019-04-07T01:03:26.009Z,7.70
2019-04-07T01:05:56.414Z,7.70
2019-04-07T01:08:27.133Z,7.70
2019-04-07T01:10:58.001Z,7.60
2019-04-07T01:13:28.510Z,7.60
2019-04-07T01:15:58.865Z,7.50
2019-04-07T01:18:32.648Z,7.50
2019-04-07T01:21:03.727Z,7.50
2019-04-07T01:23:34.758Z,7.40
2019-04-07T01:26:05.408Z,7.40
2019-04-07T01:28:36.292Z,7.30
2019-04-07T01:31:07.198Z,7.30
2019-04-07T01:33:37.749Z,7.30
2019-04-07T01:36:08.340Z,7.40
2019-04-07T01:38:38.759Z,7.50
2019-04-07T01:41:37.132Z,7.30
2019-04-07T01:44:19.185Z,7.30
2019-04-07T01:47:07.695Z,7.40
2019-04-07T01:49:56.556Z,7.40
2019-04-07T01:52:49.255Z,7.30
2019-04-07T01:55:37.753Z,7.10
2019-04-07T01:58:26.343Z,7.10
2019-04-07T02:01:07.449Z,7.10
2019-04-07T02:03:46.295Z,7.10
2019-04-07T02:06:34.971Z,7.10
2019-04-07T02:09:22.777Z,7.00
2019-04-07T02:12:21.172Z,7.20
2019-04-07T02:15:19.556Z,7.20
2019-04-07T02:17:59.368Z,7.30
2019-04-07T02:21:00.110Z,7.10
2019-04-07T02:23:48.253Z,7.20
2019-04-07T02:26:42.189Z,7.10
2019-04-07T02:29:31.621Z,7.00
2019-04-07T02:32:24.544Z,7.00
2019-04-07T02:35:06.094Z,6.80
2019-04-07T02:37:42.563Z,6.70
2019-04-07T02:40:19.198Z,6.60
2019-04-07T02:43:00.890Z,6.60
2019-04-07T02:45:50.849Z,6.90
2019-04-07T02:48:32.219Z,7.00
2019-04-07T02:51:18.646Z,6.90
2019-04-07T02:54:13.616Z,6.90
2019-04-07T02:57:06.430Z,6.80
2019-04-07T03:00:04.966Z,6.70
2019-04-07T03:02:44.031Z,6.90
2019-04-07T03:05:31.746Z,7.00
2019-04-07T03:08:19.890Z,6.90
2019-04-07T03:11:05.565Z,7.00
2019-04-07T03:13:54.312Z,6.90
2019-04-07T03:16:33.005Z,6.90
2019-04-07T03:19:11.148Z,6.80
2019-04-07T03:21:55.507Z,6.60
2019-04-07T03:24:35.252Z,6.40
2019-04-07T03:27:28.236Z,6.50
2019-04-07T03:30:28.469Z,6.50
2019-04-07T03:33:21.250Z,6.70
2019-04-07T03:36:00.574Z,6.50
2019-04-07T03:38:50.605Z,6.30
2019-04-07T03:41:42.008Z,6.50
2019-04-07T03:44:46.990Z,6.70
2019-04-07T03:47:27.802Z,6.70
2019-04-07T03:50:16.480Z,6.80
2019-04-07T03:52:52.875Z,6.70
2019-04-07T03:55:49.468Z,6.70
2019-04-07T03:58:51.155Z,6.70
2019-04-07T04:01:49.758Z,6.80
2019-04-07T04:04:38.002Z,6.70
2019-04-07T04:07:31.351Z,6.40
2019-04-07T04:10:19.416Z,6.40
2019-04-07T04:13:12.305Z,6.50
2019-04-07T04:16:04.715Z,6.70
2019-04-07T04:18:35.278Z,6.60
2019-04-07T04:21:05.691Z,6.70
2019-04-07T04:23:36.064Z,6.50
2019-04-07T04:26:06.537Z,6.50
2019-04-07T04:28:36.894Z,6.50
2019-04-07T04:31:07.326Z,6.50
2019-04-07T04:33:37.865Z,6.50
2019-04-07T04:36:09.854Z,6.40
2019-04-07T04:38:40.466Z,6.30
2019-04-07T04:41:11.248Z,6.30
2019-04-07T04:43:42.368Z,6.30
2019-04-07T04:46:13.574Z,6.40
2019-04-07T04:48:44.064Z,6.40
2019-04-07T04:51:14.538Z,6.30
2019-04-07T04:53:45.684Z,6.30
2019-04-07T04:56:16.808Z,6.10
2019-04-07T04:58:47.804Z,6.10
2019-04-07T05:01:18.722Z,6.20
2019-04-07T05:03:49.416Z,6.10
2019-04-07T05:06:20.026Z,6.10
2019-04-07T05:08:51.171Z,6.00
2019-04-07T05:11:21.678Z,6.10
2019-04-07T05:13:52.864Z,6.00
2019-04-07T05:16:24.048Z,6.10
2019-04-07T05:18:54.576Z,6.00
2019-04-07T05:21:25.061Z,5.90
2019-04-07T05:23:56.113Z,6.10
2019-04-07T05:26:26.627Z,6.30
2019-04-07T05:28:57.035Z,6.40
2019-04-07T05:31:27.389Z,6.30
2019-04-07T05:33:57.772Z,6.50
2019-04-07T05:36:28.237Z,6.60
2019-04-07T05:38:58.649Z,6.70
2019-04-07T05:41:29.591Z,6.50
2019-04-07T05:44:00.289Z,6.40
2019-04-07T05:46:31.298Z,6.60
2019-04-07T05:49:02.099Z,6.70
2019-04-07T05:51:32.738Z,6.70
2019-04-07T05:54:03.597Z,6.70
2019-04-07T05:56:34.811Z,6.80
2019-04-07T05:59:06.076Z,6.80
2019-04-07T06:01:37.468Z,6.90
2019-04-07T06:04:07.861Z,7.00
2019-04-07T06:06:41.488Z,7.20
2019-04-07T06:09:10.302Z,7.10
2019-04-07T06:11:40.650Z,7.00
2019-04-07T06:14:11.575Z,7.10
2019-04-07T06:16:43.548Z,7.10
2019-04-07T06:19:14.011Z,7.20
2019-04-07T06:21:47.401Z,7.20
2019-04-07T06:24:16.912Z,7.40
2019-04-07T06:26:49.068Z,7.60
2019-04-07T06:29:20.037Z,7.40
2019-04-07T06:31:50.581Z,7.50
2019-04-07T06:34:21.597Z,7.50
2019-04-07T06:36:55.249Z,7.50
2019-04-07T06:39:24.183Z,7.70
2019-04-07T06:41:54.602Z,7.90
2019-04-07T06:44:25.543Z,8.00
2019-04-07T06:47:24.896Z,8.10
2019-04-07T06:50:15.439Z,8.30
2019-04-07T06:53:10.691Z,8.30
2019-04-07T06:55:46.939Z,8.50
2019-04-07T06:58:25.385Z,8.70
2019-04-07T07:01:13.549Z,8.60
2019-04-07T07:04:13.149Z,8.70
2019-04-07T07:07:06.327Z,8.70
2019-04-07T07:09:44.291Z,8.80
2019-04-07T07:12:40.963Z,8.90
2019-04-07T07:15:33.736Z,9.10
2019-04-07T07:18:27.259Z,9.40
2019-04-07T07:21:09.972Z,9.40
2019-04-07T07:23:47.056Z,9.60
2019-04-07T07:26:14.454Z,9.80
2019-04-07T07:28:45.757Z,10.00
2019-04-07T07:31:16.702Z,10.10
2019-04-07T07:33:47.403Z,10.30
2019-04-07T07:36:20.632Z,10.30
2019-04-07T07:38:59.193Z,10.50
2019-04-07T07:41:36.578Z,10.80
2019-04-07T07:44:08.488Z,11.00
2019-04-07T07:46:39.674Z,11.30
2019-04-07T07:49:10.385Z,11.70
2019-04-07T07:51:45.057Z,11.90
2019-04-07T07:54:14.250Z,12.20
2019-04-07T07:56:49.446Z,12.40
2019-04-07T07:59:17.776Z,12.70
2019-04-07T08:01:51.148Z,12.90
2019-04-07T08:04:24.991Z,13.10
2019-04-07T08:06:53.564Z,13.40
2019-04-07T08:09:25.973Z,13.60
2019-04-07T08:11:56.084Z,13.90
2019-04-07T08:14:27.360Z,13.90
2019-04-07T08:17:00.190Z,14.20
2019-04-07T08:19:30.877Z,14.40
2019-04-07T08:22:03.013Z,14.60
2019-04-07T08:24:33.601Z,14.80
2019-04-07T08:27:04.115Z,15.00
2019-04-07T08:29:37.151Z,15.20
2019-04-07T08:32:07.626Z,15.20
2019-04-07T08:34:38.214Z,15.20
2019-04-07T08:37:09.463Z,15.30
2019-04-07T08:39:40.066Z,15.30
2019-04-07T08:42:14.060Z,15.20
2019-04-07T08:44:42.967Z,15.30
2019-04-07T08:47:19.740Z,15.30
2019-04-07T08:49:45.992Z,15.60
2019-04-07T08:52:17.392Z,15.80
2019-04-07T08:54:50.507Z,15.90
2019-04-07T08:57:20.175Z,15.90
2019-04-07T08:59:51.361Z,15.80
2019-04-07T09:02:24.479Z,15.60
2019-04-07T09:04:54.654Z,15.60
2019-04-07T09:07:25.231Z,15.40
2019-04-07T09:09:55.625Z,15.30
2019-04-07T09:12:28.929Z,15.20
2019-04-07T09:14:58.323Z,15.00
2019-04-07T09:17:41.151Z,14.90
2019-04-07T09:20:32.859Z,14.70
2019-04-07T09:23:14.734Z,14.80
2019-04-07T09:26:22.918Z,14.70
2019-04-07T09:29:09.379Z,14.80
2019-04-07T09:31:54.379Z,14.90
2019-04-07T09:34:45.000Z,14.80
2019-04-07T09:37:26.066Z,14.90
2019-04-07T09:40:06.772Z,14.80
2019-04-07T09:43:08.721Z,14.60
2019-04-07T09:45:57.260Z,14.60
2019-04-07T09:48:52.715Z,14.80
2019-04-07T09:51:41.376Z,15.30
2019-04-07T09:54:20.571Z,15.50
2019-04-07T09:57:08.582Z,15.80
2019-04-07T10:00:17.070Z,16.10
2019-04-07T10:03:08.542Z,16.30
2019-04-07T10:05:54.974Z,16.30
2019-04-07T10:08:35.217Z,16.20
2019-04-07T10:11:30.707Z,16.10
2019-04-07T10:14:19.584Z,16.20
2019-04-07T10:17:21.156Z,16.20
2019-04-07T10:20:22.051Z,16.10
2019-04-07T10:22:59.389Z,16.30
2019-04-07T10:25:48.057Z,16.40
2019-04-07T10:28:44.121Z,16.40
2019-04-07T10:31:39.818Z,16.60
2019-04-07T10:34:22.685Z,16.90
2019-04-07T10:37:24.407Z,16.90
2019-04-07T10:40:20.948Z,17.00
2019-04-07T10:43:06.824Z,16.90
2019-04-07T10:45:49.389Z,17.10
2019-04-07T10:48:28.669Z,17.00
2019-04-07T10:51:30.879Z,17.10
2019-04-07T10:54:15.714Z,17.10
2019-04-07T10:56:54.183Z,17.10
2019-04-07T10:59:49.352Z,17.30
2019-04-07T11:02:29.314Z,17.30
2019-04-07T11:05:17.506Z,17.50
2019-04-07T11:07:58.052Z,17.80
2019-04-07T11:10:40.114Z,17.90
2019-04-07T11:13:28.934Z,18.10
2019-04-07T11:16:10.291Z,18.20
2019-04-07T11:18:57.454Z,18.10
2019-04-07T11:21:53.138Z,18.20
2019-04-07T11:24:37.178Z,18.40
2019-04-07T11:27:16.873Z,18.50
2019-04-07T11:30:11.473Z,18.50
2019-04-07T11:32:44.461Z,18.40
2019-04-07T11:35:34.591Z,18.60
2019-04-07T11:38:14.976Z,18.90
2019-04-07T11:41:17.012Z,18.80
2019-04-07T11:43:54.690Z,19.00
2019-04-07T11:46:48.363Z,18.90
2019-04-07T11:49:39.448Z,18.90
2019-04-07T11:52:30.080Z,19.00
2019-04-07T11:55:26.976Z,19.00
2019-04-07T11:58:17.730Z,19.10
2019-04-07T12:00:53.677Z,19.20
2019-04-07T12:03:31.703Z,19.40
2019-04-07T12:06:30.232Z,19.30
2019-04-07T12:09:25.878Z,19.40
2019-04-07T12:12:18.245Z,19.40
2019-04-07T12:15:07.401Z,19.20
2019-04-07T12:18:00.214Z,19.00
2019-04-07T12:21:06.426Z,18.80
2019-04-07T12:23:54.851Z,18.80
2019-04-07T12:26:37.315Z,18.70
2019-04-07T12:29:31.902Z,18.60
2019-04-07T12:32:27.167Z,18.70
2019-04-07T12:35:20.267Z,18.60
2019-04-07T12:38:10.799Z,18.60
2019-04-07T12:40:54.855Z,18.60
2019-04-07T12:43:50.791Z,18.70
2019-04-07T12:46:41.787Z,18.70
2019-04-07T12:49:42.211Z,18.50
2019-04-07T12:52:40.925Z,18.40
2019-04-07T12:55:37.228Z,18.10
2019-04-07T12:58:32.361Z,18.00
2019-04-07T13:01:19.843Z,17.90
2019-04-07T13:04:01.274Z,17.80
2019-04-07T13:06:47.039Z,17.60
2019-04-07T13:09:36.597Z,17.60
2019-04-07T13:12:25.923Z,17.60
2019-04-07T13:15:08.536Z,17.60
2019-04-07T13:17:57.460Z,17.60
2019-04-07T13:20:49.211Z,17.40
2019-04-07T13:23:41.980Z,17.40
2019-04-07T13:26:24.176Z,17.40
2019-04-07T13:29:00.702Z,17.40
2019-04-07T13:31:40.050Z,17.40
2019-04-07T13:34:31.150Z,17.30
2019-04-07T13:37:23.865Z,17.20
2019-04-07T13:40:00.325Z,17.20
2019-04-07T13:42:59.087Z,17.30
2019-04-07T13:45:58.916Z,17.40
2019-04-07T13:48:56.706Z,17.40
2019-04-07T13:51:43.821Z,17.50
2019-04-07T13:54:32.672Z,17.50
2019-04-07T13:57:22.258Z,17.40
2019-04-07T14:00:12.863Z,17.30
2019-04-07T14:02:53.077Z,17.20
2019-04-07T14:05:46.322Z,17.10
2019-04-07T14:08:51.704Z,17.00
2019-04-07T14:11:56.565Z,17.00
2019-04-07T14:14:23.405Z,17.00
2019-04-07T14:17:11.641Z,17.00
2019-04-07T14:20:00.993Z,17.00
2019-04-07T14:22:59.367Z,17.00
2019-04-07T14:25:43.429Z,17.00
2019-04-07T14:28:39.060Z,17.10
2019-04-07T14:31:27.049Z,17.10
2019-04-07T14:34:15.734Z,17.00
2019-04-07T14:37:04.243Z,17.10
2019-04-07T14:39:59.828Z,17.10
2019-04-07T14:42:49.593Z,17.10
2019-04-07T14:45:47.562Z,17.00
2019-04-07T14:48:28.596Z,17.20
2019-04-07T14:51:15.543Z,17.40
2019-04-07T14:54:02.881Z,17.40
2019-04-07T14:56:58.673Z,17.50
2019-04-07T15:00:01.900Z,17.50
2019-04-07T15:02:34.134Z,17.50
2019-04-07T15:05:13.770Z,17.40
2019-04-07T15:08:18.311Z,17.40
2019-04-07T15:10:51.679Z,17.40
2019-04-07T15:13:27.912Z,17.40
2019-04-07T15:15:57.180Z,17.40
2019-04-07T15:18:28.577Z,17.30
2019-04-07T15:20:59.381Z,17.40
2019-04-07T15:23:32.277Z,17.40
2019-04-07T15:26:02.190Z,17.20
2019-04-07T15:28:33.822Z,17.10
2019-04-07T15:31:04.778Z,17.10
2019-04-07T15:33:35.256Z,17.00
2019-04-07T15:36:07.974Z,16.90
2019-04-07T15:38:40.358Z,16.90
2019-04-07T15:41:13.954Z,16.90
2019-04-07T15:43:41.929Z,16.90
2019-04-07T15:46:14.935Z,16.80
2019-04-07T15:48:45.336Z,16.70
2019-04-07T15:51:16.384Z,16.70
2019-04-07T15:53:51.317Z,16.70
2019-04-07T15:56:19.713Z,16.70
2019-04-07T15:58:51.732Z,16.50
2019-04-07T16:01:22.337Z,16.50
2019-04-07T16:03:54.736Z,16.60
2019-04-07T16:06:25.873Z,16.30
2019-04-07T16:08:58.812Z,16.20
2019-04-07T16:11:30.490Z,16.20
2019-04-07T16:14:01.537Z,16.20
2019-04-07T16:16:32.885Z,16.20
2019-04-07T16:19:03.455Z,16.20
2019-04-07T16:21:34.616Z,16.10
2019-04-07T16:24:06.188Z,16.10
2019-04-07T16:26:37.368Z,16.00
2019-04-07T16:29:08.238Z,16.00
2019-04-07T16:31:39.076Z,15.90
2019-04-07T16:34:10.395Z,15.90
2019-04-07T16:36:41.291Z,15.90
2019-04-07T16:39:15.804Z,16.00
2019-04-07T16:41:48.181Z,15.90
2019-04-07T16:44:19.053Z,15.90
2019-04-07T16:46:52.013Z,15.90
2019-04-07T16:49:21.777Z,15.70
2019-04-07T16:51:52.191Z,15.80
2019-04-07T16:54:23.379Z,15.80
2019-04-07T16:56:57.088Z,15.80
2019-04-07T16:59:26.444Z,15.70
2019-04-07T17:01:57.017Z,15.70
2019-04-07T17:04:28.686Z,15.70
2019-04-07T17:07:03.619Z,15.70
2019-04-07T17:09:33.413Z,15.60
2019-04-07T17:12:03.541Z,15.60
2019-04-07T17:14:36.033Z,15.50
2019-04-07T17:17:06.379Z,15.50
2019-04-07T17:19:37.286Z,15.50
2019-04-07T17:22:11.827Z,15.40
2019-04-07T17:24:40.959Z,15.40
2019-04-07T17:27:11.814Z,15.30
2019-04-07T17:29:42.382Z,15.40
2019-04-07T17:32:13.379Z,15.30
2019-04-07T17:34:44.624Z,15.20
2019-04-07T17:37:16.141Z,15.30
2019-04-07T17:39:55.927Z,15.30
2019-04-07T17:42:28.277Z,15.30
2019-04-07T17:45:20.382Z,15.20
2019-04-07T17:48:25.623Z,15.20
2019-04-07T17:51:15.538Z,15.10
2019-04-07T17:54:21.435Z,15.00
2019-04-07T17:57:11.950Z,15.00
2019-04-07T18:00:01.776Z,14.90
2019-04-07T18:03:05.288Z,14.90
2019-04-07T18:06:00.050Z,14.90
2019-04-07T18:08:45.344Z,14.70
2019-04-07T18:11:44.791Z,14.80
2019-04-07T18:14:43.765Z,14.80
2019-04-07T18:17:36.569Z,14.80
2019-04-07T18:20:38.253Z,14.80
2019-04-07T18:23:24.705Z,14.70
2019-04-07T18:26:06.252Z,14.60
2019-04-07T18:29:01.845Z,14.70
2019-04-07T18:31:46.379Z,14.80
2019-04-07T18:34:41.825Z,14.80
2019-04-07T18:37:24.769Z,14.70
2019-04-07T18:40:14.405Z,14.70
2019-04-07T18:42:54.167Z,14.60
2019-04-07T18:45:36.172Z,14.70
2019-04-07T18:48:28.433Z,14.70
2019-04-07T18:51:23.212Z,14.80
2019-04-07T18:54:12.970Z,14.70
2019-04-07T18:57:15.283Z,14.50
2019-04-07T18:59:59.375Z,14.20
2019-04-07T19:02:43.909Z,14.30
2019-04-07T19:05:36.265Z,14.40
2019-04-07T19:08:19.467Z,14.30
2019-04-07T19:11:14.302Z,14.30
2019-04-07T19:14:12.865Z,14.30
2019-04-07T19:16:52.594Z,14.40
2019-04-07T19:19:49.245Z,14.20
2019-04-07T19:22:50.717Z,14.20
2019-04-07T19:25:29.154Z,14.20
2019-04-07T19:28:18.921Z,14.20
2019-04-07T19:31:20.301Z,14.20
2019-04-07T19:34:01.294Z,14.20
2019-04-07T19:36:54.509Z,14.10
2019-04-07T19:40:02.911Z,14.10
2019-04-07T19:42:49.469Z,14.10
2019-04-07T19:45:45.122Z,14.10
2019-04-07T19:48:40.558Z,14.00
2019-04-07T19:51:34.515Z,14.00
2019-04-07T19:54:21.815Z,14.00
2019-04-07T19:57:22.184Z,14.00
2019-04-07T20:00:15.390Z,13.90
2019-04-07T20:02:53.638Z,13.90
2019-04-07T20:05:53.293Z,14.00
2019-04-07T20:08:43.707Z,13.90
2019-04-07T20:11:35.812Z,13.90
2019-04-07T20:14:14.049Z,13.90
2019-04-07T20:17:01.974Z,13.80
2019-04-07T20:19:51.394Z,13.90
2019-04-07T20:22:47.362Z,13.80
2019-04-07T20:25:24.693Z,13.80
2019-04-07T20:28:05.208Z,13.80
2019-04-07T20:31:05.467Z,13.80
2019-04-07T20:33:53.574Z,13.80
2019-04-07T20:36:44.523Z,13.80
2019-04-07T20:39:37.096Z,13.70
2019-04-07T20:42:22.032Z,13.70
2019-04-07T20:45:20.043Z,13.70
2019-04-07T20:48:21.287Z,13.50
2019-04-07T20:51:10.318Z,13.50
2019-04-07T20:54:05.677Z,13.40
2019-04-07T20:56:51.998Z,13.10
2019-04-07T20:59:51.668Z,12.80
2019-04-07T21:03:06.476Z,12.80
2019-04-07T21:05:44.963Z,12.60
2019-04-07T21:08:24.636Z,12.30
2019-04-07T21:11:11.183Z,12.10
2019-04-07T21:13:59.471Z,12.10
2019-04-07T21:16:47.583Z,12.00
2019-04-07T21:19:35.498Z,11.90
2019-04-07T21:22:20.945Z,11.80
2019-04-07T21:25:16.823Z,11.70
2019-04-07T21:27:52.711Z,11.60
2019-04-07T21:30:42.978Z,11.40
2019-04-07T21:33:33.285Z,11.50
2019-04-07T21:36:41.750Z,11.60
2019-04-07T21:39:23.053Z,11.40
2019-04-07T21:42:06.040Z,11.30
2019-04-07T21:44:51.714Z,11.10
2019-04-07T21:47:44.034Z,11.00
2019-04-07T21:50:32.469Z,11.10
2019-04-07T21:53:12.221Z,11.20
2019-04-07T21:56:20.017Z,11.30
2019-04-07T21:59:12.832Z,11.40
2019-04-07T22:02:09.172Z,11.40
2019-04-07T22:05:02.959Z,11.40
2019-04-07T22:07:39.712Z,11.30
2019-04-07T22:10:10.244Z,11.10
2019-04-07T22:12:40.904Z,10.80
2019-04-07T22:15:13.935Z,10.80
2019-04-07T22:17:43.796Z,10.80
2019-04-07T22:20:18.783Z,10.90
2019-04-07T22:22:47.381Z,10.90
2019-04-07T22:25:27.194Z,10.90
2019-04-07T22:27:57.777Z,11.00
2019-04-07T22:30:28.157Z,11.00
2019-04-07T22:32:59.819Z,10.90
2019-04-07T22:35:30.268Z,10.80
2019-04-07T22:38:01.017Z,10.60
2019-04-07T22:40:34.224Z,10.60
2019-04-07T22:43:03.734Z,10.70
2019-04-07T22:45:35.019Z,10.70
2019-04-07T22:48:08.142Z,10.60
2019-04-07T22:50:38.816Z,10.50
2019-04-07T22:53:09.762Z,10.50
2019-04-07T22:55:40.142Z,10.50
2019-04-07T22:58:10.558Z,10.40
2019-04-07T23:00:40.937Z,10.40
2019-04-07T23:03:12.074Z,10.40
2019-04-07T23:05:42.587Z,10.30
2019-04-07T23:08:12.987Z,10.30
2019-04-07T23:10:46.370Z,10.20
2019-04-07T23:13:16.765Z,10.30
2019-04-07T23:15:47.374Z,10.10
2019-04-07T23:18:18.775Z,10.00
2019-04-07T23:20:49.131Z,10.00
2019-04-07T23:23:19.519Z,10.00
2019-04-07T23:25:50.318Z,10.10
2019-04-07T23:28:20.911Z,10.10
2019-04-07T23:30:51.553Z,10.10
2019-04-07T23:33:22.303Z,10.20
2019-04-07T23:35:53.304Z,10.10
2019-04-07T23:38:24.847Z,10.10
2019-04-07T23:40:55.602Z,10.20
2019-04-07T23:43:27.074Z,10.10
2019-04-07T23:45:58.032Z,10.00
2019-04-07T23:48:28.586Z,10.00
2019-04-07T23:50:59.006Z,10.00
2019-04-07T23:54:07.448Z,9.90
2019-04-07T23:56:39.343Z,9.70
2019-04-07T23:59:10.525Z,9.70
